Terminal Aerodrome Forecast
Issued by NWS

Home | Current Version | Previous Version | Text Only | Print | Product List | Glossary On
Versions: 1 2 3 4 5 6 7 8 9 10 11 12 13 14 15 16 17 18
000
FTUS46 KSGX 050520
TAFCRQ
TAF
KCRQ 050520Z 0506/0606 00000KT P6SM SKC
     FM050900 VRB03KT P6SM BKN007
     FM051200 VRB03KT 4SM BR OVC005
     FM051600 VRB05KT 6SM BR SCT008
     FM052000 28011KT P6SM SKC
     FM060200 29004KT P6SM SKC=

USA.gov is the U.S. government's official web portal to all federal, state and local government web resources and services.